createdAt,value
2022-12-20T00:01:33.901Z,101166.31
2022-12-20T00:04:03.883Z,101175.97
2022-12-20T00:06:33.423Z,101162.00
2022-12-20T00:09:03.888Z,101167.28
2022-12-20T00:11:32.348Z,101178.59
2022-12-20T00:13:59.854Z,101171.59
2022-12-20T00:16:28.887Z,101168.97
2022-12-20T00:19:02.523Z,101165.53
2022-12-20T00:21:31.566Z,101162.91
2022-12-20T00:23:59.512Z,101162.03
2022-12-20T00:26:29.985Z,101155.88
2022-12-20T00:28:57.911Z,101148.91
2022-12-20T00:31:26.581Z,101150.69
2022-12-20T00:33:56.036Z,101155.00
2022-12-20T00:36:25.954Z,101154.13
2022-12-20T00:38:55.808Z,101143.63
2022-12-20T00:41:29.031Z,101148.81
2022-12-20T00:43:56.469Z,101144.47
2022-12-20T00:46:27.521Z,101151.38
2022-12-20T00:48:55.727Z,101146.97
2022-12-20T00:51:29.010Z,101155.72
2022-12-20T00:53:56.803Z,101153.97
2022-12-20T00:56:26.044Z,101151.38
2022-12-20T00:58:59.074Z,101154.97
2022-12-20T01:01:32.499Z,101148.84
2022-12-20T01:04:01.262Z,101141.84
2022-12-20T01:06:30.257Z,101140.94
2022-12-20T01:08:58.353Z,101137.53
2022-12-20T01:11:29.262Z,101138.47
2022-12-20T01:13:59.998Z,101135.84
2022-12-20T01:16:34.772Z,101132.41
2022-12-20T01:19:05.930Z,101137.66
2022-12-20T01:21:36.477Z,101138.53
2022-12-20T01:24:04.693Z,101142.00
2022-12-20T01:26:31.976Z,101131.53
2022-12-20T01:29:00.710Z,101134.22
2022-12-20T01:31:30.322Z,101139.50
2022-12-20T01:33:58.590Z,101126.47
2022-12-20T01:36:29.648Z,101131.81
2022-12-20T01:38:59.345Z,101135.34
2022-12-20T01:41:28.191Z,101129.34
2022-12-20T01:43:58.579Z,101134.66
2022-12-20T01:46:28.648Z,101137.28
2022-12-20T01:48:59.370Z,101125.09
2022-12-20T01:51:29.928Z,101121.56
2022-12-20T01:54:06.303Z,101115.53
2022-12-20T01:56:34.572Z,101112.91
2022-12-20T01:59:02.439Z,101092.81
2022-12-20T02:01:29.797Z,101106.81
2022-12-20T02:03:57.878Z,101108.59
2022-12-20T02:06:26.762Z,101100.69
2022-12-20T02:08:58.741Z,101097.22
2022-12-20T02:11:44.729Z,101104.19
2022-12-20T02:14:32.534Z,101097.16
2022-12-20T02:17:14.688Z,101096.25
2022-12-20T02:20:00.074Z,101093.63
2022-12-20T02:22:42.650Z,101105.91
2022-12-20T02:25:20.525Z,101097.22
2022-12-20T02:27:54.241Z,101087.66
2022-12-20T02:30:26.928Z,101098.19
2022-12-20T02:33:00.324Z,101095.59
2022-12-20T02:35:35.424Z,101087.72
2022-12-20T02:38:25.193Z,101086.84
2022-12-20T02:40:58.350Z,101083.34
2022-12-20T02:43:49.066Z,101086.84
2022-12-20T02:46:19.727Z,101087.75
2022-12-20T02:48:48.711Z,101086.84
2022-12-20T02:51:20.478Z,101083.34
2022-12-20T02:53:47.981Z,101072.88
2022-12-20T02:56:47.408Z,101078.16
2022-12-20T02:59:21.428Z,101072.03
2022-12-20T03:01:52.364Z,101069.41
2022-12-20T03:04:23.688Z,101066.78
2022-12-20T03:06:58.015Z,101066.78
2022-12-20T03:09:25.368Z,101069.47
2022-12-20T03:11:53.905Z,101062.47
2022-12-20T03:14:21.524Z,101063.38
2022-12-20T03:16:50.695Z,101058.13
2022-12-20T03:19:18.456Z,101061.69
2022-12-20T03:21:46.697Z,101059.06
2022-12-20T03:24:14.838Z,101050.25
2022-12-20T03:26:42.289Z,101064.25
2022-12-20T03:29:10.371Z,101054.63
2022-12-20T03:31:39.020Z,101054.59
2022-12-20T03:34:06.582Z,101051.03
2022-12-20T03:36:35.640Z,101062.38
2022-12-20T03:39:06.317Z,101041.34
2022-12-20T03:41:37.783Z,101039.59
2022-12-20T03:44:06.315Z,101030.78
2022-12-20T03:46:33.847Z,101037.75
2022-12-20T03:49:01.263Z,101049.97
2022-12-20T03:51:29.819Z,101041.19
2022-12-20T03:53:57.609Z,101028.91
2022-12-20T03:56:36.559Z,101041.13
2022-12-20T03:59:04.895Z,101042.00
2022-12-20T04:01:36.618Z,101052.50
2022-12-20T04:04:05.482Z,101046.41
2022-12-20T04:06:32.888Z,101042.84
2022-12-20T04:09:00.716Z,101050.72
2022-12-20T04:11:33.605Z,101051.59
2022-12-20T04:14:06.910Z,101054.19
2022-12-20T04:16:35.399Z,101058.56
2022-12-20T04:19:03.056Z,101062.94
2022-12-20T04:21:36.271Z,101059.41
2022-12-20T04:24:05.773Z,101053.28
2022-12-20T04:26:46.478Z,101059.41
2022-12-20T04:29:15.850Z,101059.41
2022-12-20T04:31:44.347Z,101060.31
2022-12-20T04:34:14.484Z,101057.69
2022-12-20T04:36:42.110Z,101051.59
2022-12-20T04:39:15.665Z,101048.09
2022-12-20T04:42:08.875Z,101052.47
2022-12-20T04:44:36.294Z,101037.66
2022-12-20T04:47:05.936Z,101040.31
2022-12-20T04:49:33.243Z,101030.69
2022-12-20T04:52:20.474Z,101027.19
2022-12-20T04:54:48.658Z,101029.81
2022-12-20T04:57:25.091Z,101023.66
2022-12-20T04:59:53.054Z,101023.66
2022-12-20T05:02:20.552Z,101022.78
2022-12-20T05:04:51.986Z,101019.31
2022-12-20T05:07:19.297Z,101016.75
2022-12-20T05:09:51.868Z,101022.06
2022-12-20T05:12:19.298Z,101026.50
2022-12-20T05:14:46.675Z,101023.91
2022-12-20T05:17:16.943Z,101016.94
2022-12-20T05:19:45.078Z,101006.47
2022-12-20T05:22:36.355Z,101004.75
2022-12-20T05:25:29.568Z,101015.34
2022-12-20T05:28:00.122Z,101003.13
2022-12-20T05:30:30.740Z,101004.06
2022-12-20T05:32:58.375Z,101006.69
2022-12-20T05:35:26.280Z,101004.94
2022-12-20T05:38:02.536Z,100995.38
2022-12-20T05:40:29.945Z,100999.75
2022-12-20T05:42:57.421Z,101005.06
2022-12-20T05:45:33.785Z,100998.09
2022-12-20T05:48:05.940Z,100996.38
2022-12-20T05:50:37.680Z,100988.53
2022-12-20T05:53:28.852Z,100978.09
2022-12-20T05:55:59.739Z,100980.75
2022-12-20T05:58:31.409Z,100979.84
2022-12-20T06:01:07.397Z,100978.16
2022-12-20T06:03:40.691Z,100978.16
2022-12-20T06:06:15.085Z,100980.81
2022-12-20T06:08:45.573Z,100976.44
2022-12-20T06:11:21.987Z,100978.25
2022-12-20T06:13:59.528Z,100985.28
2022-12-20T06:16:27.479Z,100977.44
2022-12-20T06:18:57.204Z,100973.94
2022-12-20T06:21:24.521Z,100966.94
2022-12-20T06:23:54.260Z,100973.94
2022-12-20T06:26:23.511Z,100976.56
2022-12-20T06:28:52.671Z,100970.44
2022-12-20T06:31:26.868Z,100975.72
2022-12-20T06:33:55.375Z,100979.25
2022-12-20T06:36:26.786Z,100972.25
2022-12-20T06:38:56.084Z,100977.47
2022-12-20T06:41:23.380Z,100974.03
2022-12-20T06:43:52.208Z,100972.28
2022-12-20T06:46:20.282Z,100982.78
2022-12-20T06:48:48.352Z,100977.53
2022-12-20T06:51:17.491Z,100971.41
2022-12-20T06:53:44.972Z,100967.03
2022-12-20T06:56:14.383Z,100967.03
2022-12-20T06:58:41.744Z,100974.03
2022-12-20T07:01:09.291Z,100971.44
2022-12-20T07:03:36.823Z,100972.38
2022-12-20T07:06:05.621Z,100966.28
2022-12-20T07:08:33.034Z,100972.47
2022-12-20T07:11:06.654Z,100969.81
2022-12-20T07:13:34.879Z,100963.72
2022-12-20T07:16:04.040Z,100967.28
2022-12-20T07:18:31.682Z,100955.06
2022-12-20T07:21:01.348Z,100964.72
2022-12-20T07:23:29.372Z,100960.38
2022-12-20T07:25:58.936Z,100963.00
2022-12-20T07:28:27.376Z,100960.41
2022-12-20T07:30:55.253Z,100966.53
2022-12-20T07:33:22.626Z,100963.88
2022-12-20T07:35:54.461Z,100969.16
2022-12-20T07:38:22.634Z,100963.00
2022-12-20T07:40:49.898Z,100971.69
2022-12-20T07:43:17.259Z,100969.94
2022-12-20T07:45:44.505Z,100965.47
2022-12-20T07:48:16.306Z,100961.09
2022-12-20T07:50:47.500Z,100954.94
2022-12-20T07:53:17.862Z,100957.56
2022-12-20T07:55:45.100Z,100960.19
2022-12-20T07:58:13.798Z,100964.59
2022-12-20T08:00:41.340Z,100966.28
2022-12-20T08:03:24.365Z,100966.28
2022-12-20T08:05:56.438Z,100968.91
2022-12-20T08:08:27.149Z,100963.66
2022-12-20T08:10:54.282Z,100961.03
2022-12-20T08:13:23.240Z,100958.41
2022-12-20T08:15:50.810Z,100957.56
2022-12-20T08:18:18.103Z,100958.47
2022-12-20T08:20:45.349Z,100963.84
2022-12-20T08:23:12.658Z,100956.84
2022-12-20T08:25:42.149Z,100944.72
2022-12-20T08:28:09.544Z,100949.97
2022-12-20T08:30:37.352Z,100953.53
2022-12-20T08:33:07.087Z,100960.53
2022-12-20T08:35:34.542Z,100950.06
2022-12-20T08:38:01.804Z,100962.38
2022-12-20T08:40:30.072Z,100960.63
2022-12-20T08:42:58.836Z,100956.28
2022-12-20T08:45:26.083Z,100938.75
2022-12-20T08:47:53.906Z,100927.41
2022-12-20T08:50:21.215Z,100930.94
2022-12-20T08:52:48.606Z,100930.88
2022-12-20T08:55:16.103Z,100931.72
2022-12-20T08:57:43.468Z,100942.22
2022-12-20T09:00:11.550Z,100929.94
2022-12-20T09:02:41.037Z,100922.06
2022-12-20T09:05:08.901Z,100925.53
2022-12-20T09:07:36.290Z,100921.13
2022-12-20T09:10:03.769Z,100919.38
2022-12-20T09:12:31.106Z,100917.59
2022-12-20T09:14:58.354Z,100914.13
2022-12-20T09:17:25.684Z,100911.50
2022-12-20T09:19:53.742Z,100924.63
2022-12-20T09:22:21.431Z,100924.66
2022-12-20T09:24:49.341Z,100917.59
2022-12-20T09:27:16.659Z,100916.75
2022-12-20T09:29:43.933Z,100917.59
2022-12-20T09:32:11.183Z,100915.84
2022-12-20T09:34:39.501Z,100910.59
2022-12-20T09:37:06.916Z,100902.72
2022-12-20T09:39:34.291Z,100901.84
2022-12-20T09:42:09.301Z,100913.22
2022-12-20T09:44:40.372Z,100911.50
2022-12-20T09:47:21.363Z,100918.53
2022-12-20T09:49:54.181Z,100921.19
2022-12-20T09:52:49.709Z,100913.34
2022-12-20T09:55:34.667Z,100909.00
2022-12-20T09:58:25.343Z,100916.06
2022-12-20T10:00:54.514Z,100916.13
2022-12-20T10:03:26.638Z,100921.44
2022-12-20T10:06:00.519Z,100915.34
2022-12-20T10:08:56.592Z,100912.78
2022-12-20T10:12:19.630Z,100911.06
2022-12-20T10:15:02.097Z,100910.25
2022-12-20T10:17:57.387Z,100898.00
2022-12-20T10:20:37.254Z,100891.88
2022-12-20T10:23:43.286Z,100896.25
2022-12-20T10:26:12.688Z,100882.28
2022-12-20T10:28:41.164Z,100888.44
2022-12-20T10:31:14.549Z,100889.31
2022-12-20T10:33:43.063Z,100884.97
2022-12-20T10:36:20.261Z,100885.91
2022-12-20T10:38:50.463Z,100895.53
2022-12-20T10:41:22.973Z,100882.41
2022-12-20T10:44:14.884Z,100874.56
2022-12-20T10:46:48.333Z,100872.81
2022-12-20T10:49:34.847Z,100862.31
2022-12-20T10:52:08.740Z,100861.44
2022-12-20T10:54:37.820Z,100864.09
2022-12-20T10:57:24.947Z,100871.13
2022-12-20T11:00:00.779Z,100862.34
2022-12-20T11:02:40.717Z,100860.59
2022-12-20T11:05:12.840Z,100863.25
2022-12-20T11:11:23.086Z,100853.63
2022-12-20T11:13:52.261Z,100853.66
2022-12-20T11:16:24.406Z,100857.16
2022-12-20T11:19:06.513Z,100848.41
2022-12-20T11:21:58.315Z,100852.75
2022-12-20T11:24:45.373Z,100851.88
2022-12-20T11:27:31.283Z,100843.09
2022-12-20T11:30:09.847Z,100838.72
2022-12-20T11:32:59.133Z,100840.47
2022-12-20T11:35:39.279Z,100844.84
2022-12-20T11:38:18.226Z,100842.19
2022-12-20T11:40:58.360Z,100838.66
2022-12-20T11:43:48.085Z,100843.03
2022-12-20T11:46:46.748Z,100847.44
2022-12-20T11:49:33.851Z,100847.44
2022-12-20T11:52:15.411Z,100843.03
2022-12-20T11:54:47.750Z,100848.28
2022-12-20T11:57:24.404Z,100847.44
2022-12-20T11:59:57.879Z,100848.28
2022-12-20T12:02:25.398Z,100850.06
2022-12-20T12:05:04.146Z,100840.41
2022-12-20T12:07:36.961Z,100839.56
2022-12-20T12:10:22.542Z,100844.78
2022-12-20T12:13:20.461Z,100843.03
2022-12-20T12:15:59.833Z,100832.50
2022-12-20T12:18:32.963Z,100829.00
2022-12-20T12:21:26.543Z,100819.34
2022-12-20T12:24:12.796Z,100819.34
2022-12-20T12:26:41.166Z,100821.97
2022-12-20T12:29:17.269Z,100829.88
2022-12-20T12:31:49.909Z,100825.50
2022-12-20T12:34:26.862Z,100825.50
2022-12-20T12:37:32.500Z,100830.78
2022-12-20T12:40:25.178Z,100826.38
2022-12-20T12:43:13.926Z,100830.78
2022-12-20T12:45:51.485Z,100828.16
2022-12-20T12:48:24.573Z,100828.13
2022-12-20T12:50:56.575Z,100823.72
2022-12-20T12:53:36.841Z,100824.59
2022-12-20T12:56:42.691Z,100820.19
2022-12-20T12:59:20.942Z,100817.56
2022-12-20T13:02:06.853Z,100823.69
2022-12-20T13:04:58.863Z,100818.41
2022-12-20T13:07:32.597Z,100808.78
2022-12-20T13:10:29.512Z,100813.13
2022-12-20T13:12:59.713Z,100817.50
2022-12-20T13:15:27.493Z,100814.00
2022-12-20T13:17:58.092Z,100809.59
2022-12-20T13:20:33.407Z,100812.22
2022-12-20T13:23:12.773Z,100808.69
2022-12-20T13:25:54.522Z,100799.94
2022-12-20T13:28:24.702Z,100806.06
2022-12-20T13:31:01.340Z,100812.22
2022-12-20T13:33:42.552Z,100813.06
2022-12-20T13:36:09.817Z,100820.94
2022-12-20T13:38:43.252Z,100829.72
2022-12-20T13:41:34.508Z,100824.47
2022-12-20T13:44:14.704Z,100818.31
2022-12-20T13:46:58.552Z,100814.81
2022-12-20T13:49:28.836Z,100816.53
2022-12-20T13:52:19.930Z,100817.41
2022-12-20T13:54:52.454Z,100819.19
2022-12-20T13:57:31.432Z,100814.78
2022-12-20T14:00:07.131Z,100813.94
2022-12-20T14:02:41.976Z,100800.81
2022-12-20T14:05:26.833Z,100813.94
2022-12-20T14:08:02.661Z,100813.06
2022-12-20T14:10:32.724Z,100827.13
2022-12-20T14:13:00.571Z,100821.84
2022-12-20T14:15:29.508Z,100831.47
2022-12-20T14:17:57.443Z,100826.22
2022-12-20T14:20:36.498Z,100832.34
2022-12-20T14:23:16.165Z,100826.22
2022-12-20T14:25:52.848Z,100834.13
2022-12-20T14:28:27.396Z,100834.13
2022-12-20T14:30:56.812Z,100823.59
2022-12-20T14:33:44.901Z,100831.47
2022-12-20T14:36:20.604Z,100832.34
2022-12-20T14:38:50.086Z,100826.22
2022-12-20T14:41:55.301Z,100842.00
2022-12-20T14:44:24.448Z,100831.47
2022-12-20T14:46:57.751Z,100829.75
2022-12-20T14:49:30.431Z,100830.59
2022-12-20T14:52:18.184Z,100836.69
2022-12-20T14:55:11.672Z,100834.97
2022-12-20T14:57:45.817Z,100834.94
2022-12-20T15:00:16.149Z,100836.69
2022-12-20T15:03:03.253Z,100831.41
2022-12-20T15:05:34.135Z,100828.78
2022-12-20T15:08:10.334Z,100833.16
2022-12-20T15:10:38.068Z,100828.75
2022-12-20T15:13:09.530Z,100825.28
2022-12-20T15:15:37.312Z,100830.50
2022-12-20T15:18:13.586Z,100827.88
2022-12-20T15:20:43.324Z,100838.41
2022-12-20T15:23:15.908Z,100850.66
2022-12-20T15:25:45.328Z,100855.03
2022-12-20T15:28:22.052Z,100855.03
2022-12-20T15:30:51.524Z,100854.16
2022-12-20T15:33:26.256Z,100848.03
2022-12-20T15:35:53.874Z,100846.25
2022-12-20T15:38:40.573Z,100849.78
2022-12-20T15:41:25.082Z,100847.13
2022-12-20T15:43:58.087Z,100848.84
2022-12-20T15:46:26.881Z,100847.97
2022-12-20T15:48:55.203Z,100838.31
2022-12-20T15:51:28.706Z,100846.22
2022-12-20T15:53:56.573Z,100843.59
2022-12-20T15:56:26.645Z,100846.25
2022-12-20T15:58:54.429Z,100840.97
2022-12-20T16:01:26.154Z,100848.88
2022-12-20T16:03:53.609Z,100835.72
2022-12-20T16:06:21.367Z,100849.78
2022-12-20T16:08:49.259Z,100848.00
2022-12-20T16:11:27.811Z,100847.16
2022-12-20T16:13:56.690Z,100855.91
2022-12-20T16:16:27.308Z,100849.78
2022-12-20T16:18:54.688Z,100852.38
2022-12-20T16:21:24.363Z,100855.00
2022-12-20T16:23:52.454Z,100850.59
2022-12-20T16:26:23.476Z,100848.81
2022-12-20T16:28:53.518Z,100851.47
2022-12-20T16:31:43.475Z,100847.94
2022-12-20T16:34:16.086Z,100854.97
2022-12-20T16:36:44.322Z,100847.91
2022-12-20T16:39:14.529Z,100861.91
2022-12-20T16:41:43.710Z,100857.50
2022-12-20T16:44:16.039Z,100852.22
2022-12-20T16:46:43.912Z,100857.50
2022-12-20T16:49:19.699Z,100863.56
2022-12-20T16:51:49.049Z,100860.03
2022-12-20T16:54:20.897Z,100860.94
2022-12-20T16:56:57.517Z,100867.94
2022-12-20T16:59:25.649Z,100876.66
2022-12-20T17:01:56.618Z,100875.81
2022-12-20T17:04:25.040Z,100874.91
2022-12-20T17:06:52.356Z,100870.50
2022-12-20T17:09:20.573Z,100868.72
2022-12-20T17:11:50.214Z,100880.09
2022-12-20T17:14:20.006Z,100875.72
2022-12-20T17:16:47.731Z,100875.69
2022-12-20T17:19:15.031Z,100877.44
2022-12-20T17:24:30.591Z,100875.66
2022-12-20T17:26:58.138Z,100869.53
2022-12-20T17:29:25.604Z,100871.25
2022-12-20T17:31:52.916Z,100878.28
2022-12-20T17:34:26.228Z,100880.91
2022-12-20T17:36:55.668Z,100880.88
2022-12-20T17:39:24.222Z,100878.25
2022-12-20T17:41:53.080Z,100886.13
2022-12-20T17:44:23.853Z,100887.84
2022-12-20T17:46:51.374Z,100890.47
2022-12-20T17:49:18.975Z,100886.13
2022-12-20T17:51:46.967Z,100883.47
2022-12-20T17:54:18.815Z,100887.88
2022-12-20T17:56:46.566Z,100886.09
2022-12-20T17:59:14.743Z,100886.97
2022-12-20T18:01:43.292Z,100887.84
2022-12-20T18:04:14.488Z,100891.34
2022-12-20T18:06:44.891Z,100890.47
2022-12-20T18:09:20.113Z,100889.56
2022-12-20T18:11:47.553Z,100886.06
2022-12-20T18:14:15.817Z,100884.31
2022-12-20T18:16:43.755Z,100894.81
2022-12-20T18:19:17.228Z,100894.81
2022-12-20T18:21:45.169Z,100893.91
2022-12-20T18:24:14.711Z,100888.66
2022-12-20T18:26:44.913Z,100892.19
2022-12-20T18:29:12.361Z,100886.94
2022-12-20T18:31:39.968Z,100888.66
2022-12-20T18:34:07.439Z,100898.31
2022-12-20T18:36:36.918Z,100896.56
2022-12-20T18:39:06.642Z,100901.81
2022-12-20T18:41:34.933Z,100906.19
2022-12-20T18:44:05.874Z,100899.16
2022-12-20T18:46:33.878Z,100900.06
2022-12-20T18:49:01.808Z,100893.03
2022-12-20T18:51:31.753Z,100892.16
2022-12-20T18:54:00.097Z,100893.00
2022-12-20T18:56:30.902Z,100906.13
2022-12-20T18:59:04.645Z,100903.50
2022-12-20T19:01:38.482Z,100896.50
2022-12-20T19:04:07.714Z,100887.69
2022-12-20T19:06:37.026Z,100893.81
2022-12-20T19:09:09.072Z,100897.34
2022-12-20T19:11:36.648Z,100889.44
2022-12-20T19:14:04.401Z,100899.91
2022-12-20T19:16:32.797Z,100901.63
2022-12-20T19:19:01.917Z,100900.75
2022-12-20T19:21:31.751Z,100897.19
2022-12-20T19:24:02.329Z,100908.59
2022-12-20T19:26:29.991Z,100908.56
2022-12-20T19:28:57.796Z,100893.69
2022-12-20T19:31:27.663Z,100891.94
2022-12-20T19:33:58.099Z,100903.31
2022-12-20T19:36:30.858Z,100898.94
2022-12-20T19:39:00.595Z,100897.22
2022-12-20T19:41:30.723Z,100899.84
2022-12-20T19:43:58.555Z,100901.56
2022-12-20T19:46:29.345Z,100901.56
2022-12-20T19:48:59.131Z,100906.81
2022-12-20T19:51:28.350Z,100904.16
2022-12-20T19:53:57.981Z,100909.41
2022-12-20T19:56:28.146Z,100917.28
2022-12-20T19:58:56.331Z,100918.13
2022-12-20T20:01:26.970Z,100921.63
2022-12-20T20:03:57.549Z,100926.88
2022-12-20T20:06:25.840Z,100930.34
2022-12-20T20:08:53.553Z,100919.84
2022-12-20T20:11:21.234Z,100918.09
2022-12-20T20:13:48.762Z,100920.69
2022-12-20T20:16:21.784Z,100917.19
2022-12-20T20:18:50.221Z,100919.78
2022-12-20T20:21:21.617Z,100924.13
2022-12-20T20:23:54.152Z,100926.72
2022-12-20T20:26:24.697Z,100928.50
2022-12-20T20:28:52.856Z,100935.44
2022-12-20T20:31:20.794Z,100919.69
2022-12-20T20:33:48.673Z,100928.44
2022-12-20T20:36:18.884Z,100929.28
2022-12-20T20:38:46.426Z,100929.25
2022-12-20T20:41:14.463Z,100936.22
2022-12-20T20:43:42.896Z,100937.06
2022-12-20T20:46:13.671Z,100939.66
2022-12-20T20:48:41.471Z,100943.13
2022-12-20T20:51:09.754Z,100943.09
2022-12-20T20:53:37.642Z,100942.19
2022-12-20T20:56:06.330Z,100943.94
2022-12-20T20:58:34.650Z,100936.00
2022-12-20T21:01:04.927Z,100934.22
2022-12-20T21:03:32.833Z,100943.81
2022-12-20T21:08:49.131Z,100946.38
2022-12-20T21:11:16.738Z,100941.09
2022-12-20T21:13:44.107Z,100946.31
2022-12-20T21:16:14.963Z,100948.03
2022-12-20T21:18:42.348Z,100940.97
2022-12-20T21:21:11.566Z,100933.03
2022-12-20T21:23:43.244Z,100932.09
2022-12-20T21:26:12.857Z,100937.31
2022-12-20T21:28:43.905Z,100924.13
2022-12-20T21:31:19.536Z,100916.19
2022-12-20T21:33:47.192Z,100923.13
2022-12-20T21:36:16.828Z,100934.44
2022-12-20T21:38:51.457Z,100928.25
2022-12-20T21:41:23.259Z,100926.44
2022-12-20T21:43:52.074Z,100925.50
2022-12-20T21:46:19.459Z,100927.22
2022-12-20T21:48:47.191Z,100933.25
2022-12-20T21:51:18.148Z,100919.25
2022-12-20T21:53:48.464Z,100934.06
2022-12-20T21:56:16.871Z,100921.81
2022-12-20T21:58:44.935Z,100930.47
2022-12-20T22:01:16.698Z,100926.06
2022-12-20T22:03:44.790Z,100928.66
2022-12-20T22:06:12.593Z,100933.91
2022-12-20T22:08:40.284Z,100939.13
2022-12-20T22:11:10.724Z,100947.81
2022-12-20T22:13:41.609Z,100938.16
2022-12-20T22:16:10.716Z,100928.53
2022-12-20T22:18:38.358Z,100942.47
2022-12-20T22:21:10.752Z,100931.97
2022-12-20T22:23:39.086Z,100917.09
2022-12-20T22:26:09.608Z,100920.59
2022-12-20T22:28:38.160Z,100931.00
2022-12-20T22:31:10.502Z,100942.31
2022-12-20T22:33:38.664Z,100932.66
2022-12-20T22:36:07.822Z,100945.75
2022-12-20T22:38:35.672Z,100964.97
2022-12-20T22:41:30.473Z,100970.13
2022-12-20T22:43:59.540Z,100977.09
2022-12-20T22:46:29.481Z,100972.69
2022-12-20T22:48:58.506Z,100979.63
2022-12-20T22:51:27.381Z,100984.78
2022-12-20T22:54:00.205Z,100971.63
2022-12-20T22:56:27.518Z,100968.09
2022-12-20T22:58:55.059Z,100960.19
2022-12-20T23:01:25.057Z,100963.69
2022-12-20T23:03:52.693Z,100947.88
2022-12-20T23:06:21.056Z,100948.72
2022-12-20T23:08:48.821Z,100968.75
2022-12-20T23:11:43.904Z,100966.94
2022-12-20T23:14:35.206Z,100976.50
2022-12-20T23:17:04.537Z,100977.38
2022-12-20T23:19:52.226Z,100982.56
2022-12-20T23:22:39.387Z,100984.31
2022-12-20T23:25:10.282Z,100985.16
2022-12-20T23:27:39.107Z,100980.78
2022-12-20T23:30:09.141Z,100970.28
2022-12-20T23:32:36.558Z,100958.94
2022-12-20T23:35:10.005Z,100958.00
2022-12-20T23:37:39.950Z,100974.59
2022-12-20T23:40:08.475Z,100979.78
2022-12-20T23:42:35.767Z,100971.06
2022-12-20T23:45:03.514Z,100978.00
2022-12-20T23:47:31.950Z,100973.66
2022-12-20T23:49:59.241Z,100970.13
2022-12-20T23:52:26.730Z,100977.06
2022-12-20T23:54:54.082Z,100978.81
2022-12-20T23:57:21.256Z,100977.97
2022-12-20T23:59:48.597Z,100970.94
